Time;durP1;ratioP1;P1;durP2;ratioP2;P2;SDS_P1;SDS_P2;PMS_P1;PMS_P2;Temp;Humidity;BMP_temperature;BMP_pressure;BME280_temperature;BME280_humidity;BME280_pressure;Samples;Min_cycle;Max_cycle;Signal;HPM_P1;HPM_P2
2023/09/17 00:01:38;;;;;;;4.95;4.38;;;;;;;22.52;73.63;99672.50;4981210;28;20109;-84
2023/09/17 00:04:06;;;;;;;5.60;4.25;;;;;;;22.54;73.67;99675.78;4980489;28;20039;-84
2023/09/17 00:06:33;;;;;;;5.78;4.68;;;;;;;22.54;73.99;99675.78;4944428;28;20108;-84
2023/09/17 00:09:00;;;;;;;6.47;4.93;;;;;;;22.50;73.95;99670.00;4982920;28;20057;-84
2023/09/17 00:11:27;;;;;;;9.43;5.00;;;;;;;22.56;73.78;99683.72;4967130;28;20050;-84
2023/09/17 00:13:54;;;;;;;7.07;4.60;;;;;;;22.55;73.81;99677.47;4984405;28;20054;-84
2023/09/17 00:16:21;;;;;;;5.18;4.53;;;;;;;22.53;74.09;99679.56;4996748;28;20047;-84
2023/09/17 00:18:48;;;;;;;5.45;4.95;;;;;;;22.51;73.81;99679.78;4965634;28;20126;-84
2023/09/17 00:21:15;;;;;;;6.03;4.72;;;;;;;22.52;73.68;99677.91;4972387;28;20061;-83
2023/09/17 00:23:42;;;;;;;6.40;4.80;;;;;;;22.52;73.29;99680.63;4973723;28;20051;-84
2023/09/17 00:26:09;;;;;;;6.10;4.85;;;;;;;22.50;73.29;99678.13;4986598;28;20105;-84
2023/09/17 00:28:38;;;;;;;8.68;5.35;;;;;;;22.50;73.26;99672.72;4951250;28;20050;-84
2023/09/17 00:31:05;;;;;;;6.18;4.38;;;;;;;22.47;73.46;99677.75;4967331;28;20054;-84
2023/09/17 00:33:32;;;;;;;5.75;5.15;;;;;;;22.41;74.03;99675.88;4966565;28;20046;-84
2023/09/17 00:35:58;;;;;;;7.82;4.88;;;;;;;22.39;73.93;99677.97;4969654;28;20046;-84
2023/09/17 00:38:25;;;;;;;5.18;4.68;;;;;;;22.40;74.18;99682.34;4970820;28;20125;-84
2023/09/17 00:40:52;;;;;;;8.13;4.82;;;;;;;22.40;73.21;99676.94;4968288;28;20133;-84
2023/09/17 00:43:19;;;;;;;5.43;4.53;;;;;;;22.42;73.01;99680.28;4994394;28;20046;-84
2023/09/17 00:45:46;;;;;;;4.93;4.40;;;;;;;22.42;72.83;99691.91;4968193;28;20122;-84
2023/09/17 00:48:13;;;;;;;7.35;4.80;;;;;;;22.43;72.91;99690.03;4992110;28;20137;-84
2023/09/17 00:50:40;;;;;;;7.50;5.13;;;;;;;22.40;73.34;99690.47;4954497;28;20046;-84
2023/09/17 00:53:07;;;;;;;7.38;4.95;;;;;;;22.39;72.97;99697.75;4955135;28;20043;-84
2023/09/17 00:55:34;;;;;;;5.13;4.63;;;;;;;22.36;72.66;99687.34;4985910;28;20050;-84
2023/09/17 00:58:04;;;;;;;8.25;4.95;;;;;;;22.35;72.66;99690.28;4953424;28;20457;-83
2023/09/17 01:00:33;;;;;;;7.28;4.90;;;;;;;22.35;72.83;99684.88;4950935;28;20471;-84
2023/09/17 01:03:02;;;;;;;5.35;4.85;;;;;;;22.31;72.75;99681.75;4984918;28;20055;-84
2023/09/17 01:05:36;;;;;;;6.07;4.40;;;;;;;22.33;72.93;99679.66;4985160;28;20116;-84
2023/09/17 01:08:06;;;;;;;7.07;4.20;;;;;;;22.29;72.64;99676.59;4996234;28;20047;-83
2023/09/17 01:10:34;;;;;;;7.50;4.82;;;;;;;22.30;72.95;99680.94;4999937;28;20066;-84
2023/09/17 01:13:03;;;;;;;4.93;4.15;;;;;;;22.31;72.90;99684.47;4984408;28;20050;-84
2023/09/17 01:15:30;;;;;;;9.10;4.60;;;;;;;22.25;72.88;99688.88;4950349;28;20063;-84
2023/09/17 01:17:57;;;;;;;4.85;4.30;;;;;;;22.24;72.88;99689.94;4982846;28;20393;-84
2023/09/17 01:20:29;;;;;;;10.13;4.60;;;;;;;22.23;72.76;99692.84;4976654;28;20050;-84
2023/09/17 01:22:59;;;;;;;6.00;4.32;;;;;;;22.20;72.51;99698.69;4968473;28;20050;-84
2023/09/17 01:26:08;;;;;;;5.45;4.55;;;;;;;22.07;73.00;99700.34;4966067;28;20493;-84
2023/09/17 01:28:35;;;;;;;5.45;4.80;;;;;;;22.16;72.84;99705.53;4947455;28;20525;-84
2023/09/17 01:31:03;;;;;;;6.50;4.70;;;;;;;22.15;72.70;99711.97;4977097;28;20082;-84
2023/09/17 01:33:30;;;;;;;4.82;4.40;;;;;;;22.10;72.66;99709.91;4981227;28;20046;-85
2023/09/17 01:36:06;;;;;;;6.28;5.32;;;;;;;21.98;72.76;99712.47;4987608;28;20129;-84
2023/09/17 01:38:39;;;;;;;5.60;5.00;;;;;;;22.00;72.75;99715.78;4949056;28;20050;-85
2023/09/17 01:41:06;;;;;;;8.40;5.60;;;;;;;22.01;72.89;99708.50;4958598;28;20039;-84
2023/09/17 01:43:34;;;;;;;13.90;8.43;;;;;;;22.01;72.96;99705.81;4978585;28;20042;-84
2023/09/17 01:46:01;;;;;;;14.13;7.70;;;;;;;21.97;72.87;99713.50;4978118;28;20054;-84
2023/09/17 01:48:28;;;;;;;16.80;9.15;;;;;;;21.94;72.83;99713.94;4976917;28;20560;-84
2023/09/17 01:50:55;;;;;;;13.98;7.88;;;;;;;21.93;72.82;99717.69;4983714;28;20034;-84
2023/09/17 01:53:22;;;;;;;15.30;9.18;;;;;;;21.91;72.85;99705.44;4965813;28;20043;-84
2023/09/17 01:55:51;;;;;;;17.52;9.77;;;;;;;21.94;72.69;99713.94;4974066;28;20455;-84
2023/09/17 01:58:18;;;;;;;13.93;9.10;;;;;;;21.89;73.07;99706.44;4969677;28;20069;-84
2023/09/17 02:00:45;;;;;;;19.15;8.38;;;;;;;21.92;73.04;99715.19;4952407;28;20054;-84
2023/09/17 02:03:12;;;;;;;10.75;8.00;;;;;;;21.87;73.14;99707.72;4973493;28;20073;-83
2023/09/17 02:05:39;;;;;;;12.25;8.13;;;;;;;21.85;73.20;99704.38;4979208;28;20078;-84
2023/09/17 02:08:06;;;;;;;10.70;7.63;;;;;;;21.86;73.39;99712.28;4998666;28;20434;-83
2023/09/17 02:10:32;;;;;;;9.45;7.72;;;;;;;21.86;73.26;99712.28;4965876;28;20062;-84
2023/09/17 02:12:59;;;;;;;11.40;7.53;;;;;;;21.88;73.70;99714.78;4961562;28;20055;-83
2023/09/17 02:15:26;;;;;;;9.70;7.30;;;;;;;21.84;73.56;99718.94;4950319;28;20503;-84
2023/09/17 02:17:53;;;;;;;10.43;6.50;;;;;;;21.79;74.34;99722.28;4960950;28;20038;-84
2023/09/17 02:20:20;;;;;;;10.55;7.00;;;;;;;21.77;73.98;99721.66;4981826;28;20370;-84
2023/09/17 02:22:47;;;;;;;10.90;6.70;;;;;;;21.75;74.15;99723.75;4979860;28;20246;-84
2023/09/17 02:25:14;;;;;;;12.32;7.38;;;;;;;21.76;74.10;99725.41;5001425;28;20057;-83
2023/09/17 02:27:41;;;;;;;9.75;6.45;;;;;;;21.77;73.94;99726.25;4957537;28;20046;-84
2023/09/17 02:30:08;;;;;;;8.77;6.22;;;;;;;21.75;73.81;99731.03;4978428;28;20046;-84
2023/09/17 02:32:37;;;;;;;9.13;6.43;;;;;;;21.73;74.24;99725.84;4934910;28;20066;-84
2023/09/17 02:35:06;;;;;;;9.15;6.70;;;;;;;21.71;74.29;99722.50;4985212;28;20077;-84
2023/09/17 02:37:33;;;;;;;9.35;7.53;;;;;;;21.74;74.42;99721.25;4997919;28;20069;-84
2023/09/17 02:40:00;;;;;;;13.15;7.40;;;;;;;21.75;74.47;99721.03;4976079;28;20050;-84
2023/09/17 02:42:30;;;;;;;8.18;6.65;;;;;;;21.74;74.82;99716.69;4943707;28;20046;-84
2023/09/17 02:44:56;;;;;;;7.45;6.20;;;;;;;21.77;74.51;99713.56;4963324;28;20049;-84
2023/09/17 02:47:23;;;;;;;10.77;6.65;;;;;;;21.75;74.30;99712.94;4964667;28;20038;-84
2023/09/17 02:49:51;;;;;;;9.02;6.25;;;;;;;21.76;73.87;99714.59;4981332;28;20508;-83
2023/09/17 02:52:17;;;;;;;7.88;6.35;;;;;;;21.74;73.82;99707.75;4972190;28;20058;-83
2023/09/17 02:54:44;;;;;;;7.55;5.75;;;;;;;21.74;74.09;99711.28;4933434;28;20061;-84
2023/09/17 02:57:12;;;;;;;5.55;4.80;;;;;;;21.75;73.57;99712.94;4963288;28;20057;-83
2023/09/17 02:59:38;;;;;;;9.43;5.72;;;;;;;21.74;73.58;99700.47;4977938;28;20453;-84
2023/09/17 03:02:06;;;;;;;6.88;5.47;;;;;;;21.70;73.57;99712.72;4961936;28;20057;-84
2023/09/17 03:04:33;;;;;;;8.48;5.78;;;;;;;21.72;73.72;99712.53;4985720;28;20058;-84
2023/09/17 03:07:00;;;;;;;6.80;5.38;;;;;;;21.68;74.04;99710.25;4983662;28;20042;-84
2023/09/17 03:09:27;;;;;;;9.30;5.75;;;;;;;21.66;74.09;99706.09;4963764;28;20046;-84
2023/09/17 03:11:54;;;;;;;7.25;6.45;;;;;;;21.66;73.60;99706.09;4978886;28;20070;-84
2023/09/17 03:14:21;;;;;;;7.50;5.57;;;;;;;21.67;73.71;99703.16;4979657;28;20074;-84
2023/09/17 03:16:48;;;;;;;9.82;6.53;;;;;;;21.66;73.82;99715.03;4970571;28;20401;-83
2023/09/17 03:19:19;;;;;;;8.70;6.10;;;;;;;21.63;73.95;99715.47;4981107;28;20133;-84
2023/09/17 03:21:47;;;;;;;7.88;5.93;;;;;;;21.64;73.52;99719.00;4974910;28;20074;-84
2023/09/17 03:24:15;;;;;;;8.88;6.72;;;;;;;21.60;73.84;99713.19;4998051;28;20057;-83
2023/09/17 03:26:42;;;;;;;6.80;5.80;;;;;;;21.59;74.00;99711.50;4965814;28;20078;-84
2023/09/17 03:29:10;;;;;;;9.45;5.95;;;;;;;21.60;73.73;99723.13;4968066;28;20129;-84
2023/09/17 03:31:38;;;;;;;7.75;5.82;;;;;;;21.59;73.84;99725.03;4942297;28;20425;-84
2023/09/17 03:34:08;;;;;;;8.70;5.60;;;;;;;21.54;73.72;99724.81;4990537;28;20054;-84
2023/09/17 03:36:35;;;;;;;6.90;5.45;;;;;;;21.56;73.65;99719.22;4967409;28;20132;-83
2023/09/17 03:39:05;;;;;;;5.70;5.03;;;;;;;21.59;73.21;99721.50;4961700;28;20042;-84
2023/09/17 03:41:33;;;;;;;7.00;5.25;;;;;;;21.57;73.11;99720.88;4944108;28;20047;-83
2023/09/17 03:44:00;;;;;;;5.60;4.85;;;;;;;21.54;73.02;99719.41;4963765;28;20369;-83
2023/09/17 03:46:27;;;;;;;5.35;4.85;;;;;;;21.53;73.09;99722.34;4947302;28;20050;-83
2023/09/17 03:48:56;;;;;;;5.78;4.93;;;;;;;21.49;72.86;99724.63;4960863;28;20047;-84
2023/09/17 03:51:23;;;;;;;5.10;4.55;;;;;;;21.48;73.18;99735.66;4948709;28;20058;-84
2023/09/17 03:53:50;;;;;;;6.25;4.57;;;;;;;21.44;73.02;99725.25;4949564;28;20514;-84
2023/09/17 03:56:18;;;;;;;7.35;4.85;;;;;;;21.40;73.08;99731.28;4926737;28;20051;-84
2023/09/17 03:58:45;;;;;;;6.70;4.88;;;;;;;21.39;73.00;99732.31;4946818;28;20598;-84
2023/09/17 04:01:13;;;;;;;5.63;5.13;;;;;;;21.36;73.22;99735.41;4950065;28;21146;-84
2023/09/17 04:03:40;;;;;;;5.43;4.65;;;;;;;21.34;72.99;99724.81;4958888;28;20097;-84
2023/09/17 04:06:08;;;;;;;5.85;4.57;;;;;;;21.39;73.08;99729.63;4999512;28;20038;-84
2023/09/17 04:08:35;;;;;;;5.32;4.32;;;;;;;21.34;73.03;99721.28;4976781;28;20039;-84
2023/09/17 04:11:04;;;;;;;9.10;5.00;;;;;;;21.35;73.38;99725.66;4984612;28;20121;-84
2023/09/17 04:13:31;;;;;;;5.03;4.38;;;;;;;21.33;73.33;99727.72;4960601;28;20046;-84
2023/09/17 04:15:58;;;;;;;6.43;4.82;;;;;;;21.30;73.43;99728.16;4965346;28;20117;-84
2023/09/17 04:18:26;;;;;;;5.65;5.00;;;;;;;21.27;73.49;99715.03;4975124;28;20552;-83
2023/09/17 04:20:52;;;;;;;6.13;4.63;;;;;;;21.25;73.68;99726.91;4963809;28;20055;-84
2023/09/17 04:23:19;;;;;;;6.45;4.65;;;;;;;21.28;73.40;99722.94;4971256;28;20054;-83
2023/09/17 04:25:46;;;;;;;4.80;4.32;;;;;;;21.25;73.59;99721.50;4979164;28;20065;-84
2023/09/17 04:28:13;;;;;;;6.00;4.50;;;;;;;21.24;73.73;99727.94;4976124;28;20050;-84
2023/09/17 04:30:40;;;;;;;6.72;4.80;;;;;;;21.21;73.60;99730.22;4969874;28;20117;-84
2023/09/17 04:33:07;;;;;;;5.38;4.65;;;;;;;21.21;73.94;99722.13;4987138;28;20054;-83
2023/09/17 04:35:34;;;;;;;5.20;4.63;;;;;;;21.17;74.09;99718.19;4946287;28;20070;-84
2023/09/17 04:38:02;;;;;;;5.88;5.10;;;;;;;21.14;73.83;99723.97;4978893;28;20050;-83
2023/09/17 04:40:31;;;;;;;6.10;5.22;;;;;;;21.17;73.98;99729.81;4947976;28;20042;-83
2023/09/17 04:43:03;;;;;;;5.55;4.90;;;;;;;21.16;74.01;99728.13;4949263;28;20050;-84
2023/09/17 04:45:35;;;;;;;6.05;4.70;;;;;;;21.14;73.92;99726.69;4978774;28;20090;-84
2023/09/17 04:48:11;;;;;;;6.30;4.88;;;;;;;21.10;73.56;99725.44;4961585;28;20101;-84
2023/09/17 04:50:42;;;;;;;6.45;4.20;;;;;;;21.09;73.26;99726.47;4980689;28;20042;-83
2023/09/17 04:53:13;;;;;;;6.80;5.00;;;;;;;21.08;73.22;99728.34;4976595;28;20039;-84
2023/09/17 04:55:42;;;;;;;6.20;5.05;;;;;;;21.12;73.33;99734.19;4963373;28;20117;-84
2023/09/17 04:58:09;;;;;;;4.75;4.30;;;;;;;21.10;73.31;99725.44;4981277;28;22404;-83
2023/09/17 05:00:37;;;;;;;6.65;4.57;;;;;;;21.07;73.14;99736.66;4968530;28;20145;-84
2023/09/17 05:03:05;;;;;;;7.45;4.85;;;;;;;21.07;73.00;99742.06;4973305;28;20042;-83
2023/09/17 05:05:33;;;;;;;6.40;4.32;;;;;;;21.05;73.08;99734.16;4960192;28;20598;-84
2023/09/17 05:08:01;;;;;;;4.90;4.40;;;;;;;21.05;72.95;99742.25;4972487;28;20089;-83
2023/09/17 05:10:28;;;;;;;6.07;5.50;;;;;;;21.08;73.18;99741.00;4971542;28;20101;-84
2023/09/17 05:12:56;;;;;;;5.72;4.18;;;;;;;21.08;72.93;99751.81;4982321;28;20405;-84
2023/09/17 05:15:24;;;;;;;8.95;5.18;;;;;;;21.05;72.96;99754.94;4982099;28;20096;-83
2023/09/17 05:17:54;;;;;;;5.07;4.40;;;;;;;21.01;73.11;99751.78;4968200;28;20076;-84
2023/09/17 05:20:21;;;;;;;5.65;4.43;;;;;;;20.95;73.28;99760.72;4986777;28;20051;-84
2023/09/17 05:22:48;;;;;;;5.28;4.78;;;;;;;20.99;73.31;99757.41;4980582;28;20038;-83
2023/09/17 05:25:15;;;;;;;7.35;4.85;;;;;;;20.99;73.48;99765.50;4970653;28;20053;-84
2023/09/17 05:27:43;;;;;;;6.85;4.43;;;;;;;20.97;73.74;99767.59;4999388;28;20405;-83
2023/09/17 05:30:10;;;;;;;6.35;4.90;;;;;;;21.01;73.60;99762.59;4967710;28;20062;-83
2023/09/17 05:32:38;;;;;;;6.40;4.82;;;;;;;21.00;73.84;99771.75;4967186;28;20414;-83
2023/09/17 05:35:06;;;;;;;6.38;4.57;;;;;;;20.99;73.77;99772.78;4970666;28;20501;-84
2023/09/17 05:37:34;;;;;;;7.20;4.95;;;;;;;21.00;73.83;99777.97;4929612;28;20046;-84
2023/09/17 05:40:05;;;;;;;8.70;5.07;;;;;;;21.00;73.77;99777.97;4962500;28;20051;-84
2023/09/17 05:42:32;;;;;;;7.25;4.90;;;;;;;21.02;73.85;99781.28;5000769;28;20058;-84
2023/09/17 05:44:59;;;;;;;5.72;5.18;;;;;;;21.02;73.71;99785.88;4981677;28;20094;-84
2023/09/17 05:47:26;;;;;;;6.55;5.00;;;;;;;21.03;73.56;99782.13;4983128;28;20407;-84
2023/09/17 05:49:55;;;;;;;5.45;4.95;;;;;;;21.00;74.13;99787.94;4982055;28;20047;-84
2023/09/17 05:52:24;;;;;;;5.85;4.53;;;;;;;21.03;73.90;99788.34;4985696;28;20516;-84
2023/09/17 05:54:52;;;;;;;7.68;5.43;;;;;;;21.03;74.10;99791.03;4967024;28;20395;-84
2023/09/17 05:57:18;;;;;;;6.35;4.95;;;;;;;21.03;74.10;99790.22;4972091;28;20058;-84
2023/09/17 05:59:45;;;;;;;5.53;4.78;;;;;;;21.03;74.18;99793.75;4933831;28;20109;-83
2023/09/17 06:02:12;;;;;;;6.55;4.93;;;;;;;21.07;74.09;99793.38;4969633;28;20059;-84
2023/09/17 06:04:40;;;;;;;8.52;5.65;;;;;;;21.06;74.04;99797.91;4966953;28;20117;-84
2023/09/17 06:07:07;;;;;;;6.00;4.95;;;;;;;21.11;74.18;99797.28;4983754;28;20093;-83
2023/09/17 06:09:34;;;;;;;6.22;5.07;;;;;;;21.12;74.13;99790.88;4986786;28;20058;-84
2023/09/17 06:12:01;;;;;;;7.25;5.22;;;;;;;21.12;74.41;99804.38;4967921;28;20513;-84
2023/09/17 06:14:28;;;;;;;5.38;4.88;;;;;;;21.13;74.35;99809.56;4982523;28;20354;-84
2023/09/17 06:16:54;;;;;;;8.20;5.53;;;;;;;21.10;73.71;99798.34;4975552;28;20078;-83
2023/09/17 06:19:26;;;;;;;6.57;4.82;;;;;;;21.11;73.45;99810.78;4982591;28;20046;-84
2023/09/17 06:21:54;;;;;;;7.15;4.90;;;;;;;21.09;73.85;99812.88;4981273;28;20494;-84
2023/09/17 06:24:21;;;;;;;9.88;5.28;;;;;;;21.09;73.11;99807.47;4967359;28;20510;-84
2023/09/17 06:26:48;;;;;;;6.97;5.40;;;;;;;21.05;73.33;99809.75;4982533;28;20418;-84
2023/09/17 06:29:15;;;;;;;5.80;5.20;;;;;;;21.06;73.58;99813.28;4981718;28;20578;-84
2023/09/17 06:31:43;;;;;;;5.47;4.85;;;;;;;21.08;73.45;99814.75;4963824;28;20047;-84
2023/09/17 06:34:10;;;;;;;6.47;5.22;;;;;;;21.09;73.75;99816.41;4954624;28;20117;-84
2023/09/17 06:36:38;;;;;;;7.40;5.10;;;;;;;21.11;73.61;99816.19;4947523;28;20116;-83
2023/09/17 06:39:06;;;;;;;7.43;5.38;;;;;;;21.12;73.54;99815.19;4967859;28;20054;-83
2023/09/17 06:41:33;;;;;;;7.00;5.65;;;;;;;21.13;73.23;99822.22;4963701;28;20498;-83
2023/09/17 06:44:03;;;;;;;8.77;5.55;;;;;;;21.12;73.37;99823.28;4980499;28;20545;-84
2023/09/17 06:46:30;;;;;;;6.00;5.40;;;;;;;21.14;73.25;99818.47;4963918;28;20479;-84
2023/09/17 06:48:57;;;;;;;7.00;5.22;;;;;;;21.13;72.88;99816.81;4982333;28;20122;-83
2023/09/17 06:51:24;;;;;;;6.75;5.32;;;;;;;21.13;73.07;99808.72;4992313;28;20483;-84
2023/09/17 06:53:51;;;;;;;6.57;5.50;;;;;;;21.23;72.69;99818.09;4959925;28;20263;-84
2023/09/17 06:56:18;;;;;;;6.30;5.60;;;;;;;21.20;72.80;99815.81;4999232;28;20092;-84
2023/09/17 06:58:45;;;;;;;7.38;5.72;;;;;;;21.20;72.68;99810.41;4965761;28;20101;-84
2023/09/17 07:01:12;;;;;;;7.70;5.15;;;;;;;21.21;72.91;99811.22;4956056;28;20054;-84
2023/09/17 07:03:39;;;;;;;6.03;5.18;;;;;;;21.24;73.24;99805.41;4961783;28;20069;-84
2023/09/17 07:06:06;;;;;;;7.28;5.57;;;;;;;21.28;72.88;99809.38;4966091;28;20046;-84
2023/09/17 07:08:33;;;;;;;6.80;5.10;;;;;;;21.29;72.88;99791.28;4970708;28;20494;-85
2023/09/17 07:11:00;;;;;;;8.63;5.50;;;;;;;21.35;72.96;99804.00;4975232;28;20054;-84
2023/09/17 07:13:28;;;;;;;6.10;5.50;;;;;;;21.38;73.34;99799.03;4989605;28;20069;-85
2023/09/17 07:15:55;;;;;;;6.07;5.10;;;;;;;21.43;72.96;99795.69;4972877;28;24640;-84
2023/09/17 07:18:23;;;;;;;6.30;5.68;;;;;;;21.46;73.43;99793.41;4973988;28;20047;-85
2023/09/17 07:20:49;;;;;;;6.35;5.68;;;;;;;21.46;72.89;99789.88;4964299;28;20043;-84
2023/09/17 07:23:16;;;;;;;6.78;5.55;;;;;;;21.50;72.90;99788.44;4982103;28;20038;-84
2023/09/17 07:25:47;;;;;;;7.22;5.60;;;;;;;21.52;73.06;99793.63;4980435;28;20049;-84
2023/09/17 07:28:13;;;;;;;6.53;5.57;;;;;;;21.57;73.17;99793.81;4930884;28;20070;-83
2023/09/17 07:30:40;;;;;;;5.72;5.18;;;;;;;21.58;72.97;99798.19;4975066;28;20397;-84
2023/09/17 07:33:07;;;;;;;7.63;5.95;;;;;;;21.58;72.76;99790.91;4982126;28;20045;-83
2023/09/17 07:35:37;;;;;;;8.38;5.72;;;;;;;21.61;72.90;99790.50;4974070;28;20383;-84
2023/09/17 07:38:04;;;;;;;7.50;5.82;;;;;;;21.63;72.76;99795.72;4996013;28;20042;-84
2023/09/17 07:40:31;;;;;;;9.02;6.00;;;;;;;21.66;72.67;99788.00;4977015;28;20049;-84
2023/09/17 07:42:58;;;;;;;7.72;6.00;;;;;;;21.66;72.49;99797.97;4995761;28;20065;-84
2023/09/17 07:45:25;;;;;;;7.03;5.90;;;;;;;21.71;73.08;99792.78;4987068;28;20038;-83
2023/09/17 07:47:52;;;;;;;8.60;6.10;;;;;;;21.72;73.11;99794.44;4990653;28;21706;-83
2023/09/17 07:50:19;;;;;;;7.30;6.50;;;;;;;21.74;72.98;99791.53;4997398;28;20050;-83
2023/09/17 07:52:45;;;;;;;7.18;6.47;;;;;;;21.76;72.94;99801.09;4980580;28;20054;-83
2023/09/17 07:55:12;;;;;;;7.40;6.65;;;;;;;21.78;73.18;99809.84;4960355;28;20061;-82
2023/09/17 07:57:39;;;;;;;8.88;6.38;;;;;;;21.78;72.84;99807.13;4962028;28;20376;-83
2023/09/17 08:00:06;;;;;;;8.55;6.82;;;;;;;21.81;73.26;99804.00;4980301;28;20035;-83
2023/09/17 08:02:39;;;;;;;7.50;6.72;;;;;;;21.84;73.29;99806.28;4976601;28;20134;-83
2023/09/17 08:05:07;;;;;;;7.85;7.07;;;;;;;21.87;73.32;99799.63;4979697;28;20047;-83
2023/09/17 08:07:35;;;;;;;7.30;6.47;;;;;;;21.91;73.23;99802.75;4984030;28;20445;-83
2023/09/17 08:10:06;;;;;;;7.05;6.30;;;;;;;21.95;73.31;99812.09;4982968;28;20047;-83
2023/09/17 08:12:33;;;;;;;9.77;6.90;;;;;;;21.93;73.59;99795.22;4981724;28;20577;-84
2023/09/17 08:15:00;;;;;;;7.63;6.63;;;;;;;21.96;73.31;99803.78;4962696;28;20075;-83
2023/09/17 08:17:27;;;;;;;8.68;6.40;;;;;;;21.99;73.48;99803.34;4952713;28;20047;-84
2023/09/17 08:19:56;;;;;;;8.30;6.40;;;;;;;22.01;73.69;99811.25;4948075;28;20104;-83
2023/09/17 08:22:25;;;;;;;8.80;7.18;;;;;;;22.01;73.81;99803.97;4945206;28;20054;-84
2023/09/17 08:25:12;;;;;;;7.80;6.45;;;;;;;22.08;73.72;99817.47;4980178;28;20399;-83
2023/09/17 08:27:59;;;;;;;8.20;6.00;;;;;;;22.10;74.03;99809.97;4967745;28;20050;-84
2023/09/17 08:30:45;;;;;;;6.80;6.10;;;;;;;22.12;74.25;99816.00;4986124;28;21082;-83
2023/09/17 08:33:32;;;;;;;10.63;6.25;;;;;;;22.15;74.22;99814.75;4950350;28;20046;-83
2023/09/17 08:36:09;;;;;;;8.18;6.10;;;;;;;22.18;73.93;99809.75;4983461;28;20523;-83
2023/09/17 08:38:36;;;;;;;6.47;5.50;;;;;;;22.23;73.96;99811.84;4971071;28;20042;-84
2023/09/17 08:41:03;;;;;;;7.88;6.07;;;;;;;22.24;74.60;99819.75;4995148;28;20054;-83
2023/09/17 08:43:31;;;;;;;6.85;6.00;;;;;;;22.29;74.82;99819.94;4986464;28;20101;-85
2023/09/17 08:45:59;;;;;;;7.00;5.90;;;;;;;22.33;75.29;99815.75;4983196;28;20046;-84
2023/09/17 08:48:26;;;;;;;7.38;6.55;;;;;;;22.38;75.65;99811.59;4980752;28;20054;-83
2023/09/17 08:50:54;;;;;;;7.47;6.20;;;;;;;22.42;75.53;99816.38;4966396;28;20074;-82
2023/09/17 08:53:27;;;;;;;7.97;5.88;;;;;;;22.44;75.32;99817.00;4968429;28;20038;-80
2023/09/17 08:55:55;;;;;;;7.50;5.82;;;;;;;22.49;75.31;99814.47;4974155;28;20410;-80
2023/09/17 08:58:26;;;;;;;7.25;5.93;;;;;;;22.54;75.51;99825.50;4980614;28;20042;-81
2023/09/17 09:00:57;;;;;;;6.03;5.40;;;;;;;22.57;75.60;99821.53;4981801;28;20046;-82
2023/09/17 09:03:25;;;;;;;6.55;5.93;;;;;;;22.62;75.87;99821.72;4968162;28;20054;-82
2023/09/17 09:05:55;;;;;;;7.50;6.25;;;;;;;22.66;76.20;99822.91;4963358;28;20054;-80
2023/09/17 09:08:23;;;;;;;8.45;6.28;;;;;;;22.68;75.74;99834.38;4967166;28;20133;-80
2023/09/17 09:10:53;;;;;;;6.88;6.18;;;;;;;22.70;75.65;99826.06;4973832;28;20418;-80
2023/09/17 09:13:20;;;;;;;7.72;7.03;;;;;;;22.71;75.82;99817.69;4935255;28;20047;-82
2023/09/17 09:15:47;;;;;;;5.68;5.10;;;;;;;22.72;75.77;99813.13;4982157;28;20038;-80
2023/09/17 09:18:14;;;;;;;7.35;6.38;;;;;;;22.75;75.56;99805.41;4978150;28;20039;-80
2023/09/17 09:20:42;;;;;;;7.15;6.45;;;;;;;22.79;75.46;99803.06;4997285;28;20375;-82
2023/09/17 09:23:09;;;;;;;7.15;5.90;;;;;;;22.82;75.31;99796.41;4983751;28;20069;-84
2023/09/17 09:25:36;;;;;;;10.05;6.47;;;;;;;22.83;75.29;99804.31;4982298;28;20058;-83
2023/09/17 09:28:03;;;;;;;8.18;5.72;;;;;;;22.86;75.41;99801.16;4957375;28;20122;-86
2023/09/17 09:30:30;;;;;;;7.53;5.97;;;;;;;22.90;74.65;99798.88;4961290;28;20129;-82
2023/09/17 09:32:57;;;;;;;6.82;6.13;;;;;;;22.88;74.61;99798.25;4982620;28;20050;-82
2023/09/17 09:35:25;;;;;;;7.47;5.63;;;;;;;22.92;74.55;99796.75;4968582;28;20049;-82
2023/09/17 09:37:53;;;;;;;9.02;6.43;;;;;;;22.94;74.37;99803.63;4984336;28;20132;-82
2023/09/17 09:40:21;;;;;;;6.75;5.97;;;;;;;22.94;74.10;99802.78;4979485;28;20077;-82
2023/09/17 09:42:48;;;;;;;12.40;5.97;;;;;;;22.99;73.90;99804.88;4967101;28;20056;-82
2023/09/17 09:45:16;;;;;;;6.78;6.07;;;;;;;23.03;73.76;99801.53;4986772;28;20054;-82
2023/09/17 09:47:48;;;;;;;6.47;5.57;;;;;;;23.07;73.27;99797.31;4969867;28;20061;-83
2023/09/17 09:50:22;;;;;;;8.80;5.75;;;;;;;23.07;72.14;99799.19;5000224;28;20038;-83
2023/09/17 09:52:49;;;;;;;6.90;6.03;;;;;;;23.12;73.01;99789.38;4964737;28;20120;-83
2023/09/17 09:55:16;;;;;;;6.18;5.50;;;;;;;23.16;72.02;99787.91;4968309;28;20046;-82
2023/09/17 09:57:43;;;;;;;7.10;5.10;;;;;;;23.18;71.70;99782.28;4952210;28;20572;-81
2023/09/17 10:00:18;;;;;;;5.05;4.55;;;;;;;23.19;71.14;99783.91;4969681;28;20050;-82
2023/09/17 10:02:46;;;;;;;7.35;5.18;;;;;;;23.23;70.74;99781.59;4980147;28;20042;-82
2023/09/17 10:05:18;;;;;;;6.07;4.78;;;;;;;23.24;70.34;99778.66;4977978;28;20378;-82
2023/09/17 10:07:48;;;;;;;5.57;5.07;;;;;;;23.22;69.39;99774.53;4975283;28;20771;-85
2023/09/17 10:10:15;;;;;;;4.93;4.45;;;;;;;23.27;69.73;99777.41;4957108;28;20067;-82
2023/09/17 10:12:42;;;;;;;5.65;4.30;;;;;;;23.27;69.23;99772.81;4970663;28;20070;-83
2023/09/17 10:15:09;;;;;;;6.65;4.38;;;;;;;23.33;68.75;99773.78;4960700;28;20176;-83
2023/09/17 10:17:37;;;;;;;4.93;4.45;;;;;;;23.34;69.21;99770.06;4978398;28;20048;-82
2023/09/17 10:20:08;;;;;;;6.03;4.75;;;;;;;23.37;68.54;99773.13;4986015;28;20065;-81
2023/09/17 10:22:35;;;;;;;4.88;4.38;;;;;;;23.40;68.55;99763.75;4985463;28;20078;-82
2023/09/17 10:25:06;;;;;;;6.47;4.75;;;;;;;23.40;68.42;99764.56;4947036;28;20053;-82
2023/09/17 10:27:36;;;;;;;4.75;4.03;;;;;;;23.46;68.11;99768.28;4995032;28;20051;-82
2023/09/17 10:30:03;;;;;;;5.53;4.10;;;;;;;23.50;68.65;99764.06;4994668;28;20042;-81
2023/09/17 10:32:34;;;;;;;6.35;4.82;;;;;;;23.53;68.52;99763.63;4981957;28;20406;-82
2023/09/17 10:35:03;;;;;;;4.60;4.20;;;;;;;23.55;68.19;99760.69;4978842;28;20061;-82
2023/09/17 10:37:32;;;;;;;5.80;4.75;;;;;;;23.59;67.99;99754.63;4988748;28;22938;-81
2023/09/17 10:40:00;;;;;;;7.65;4.43;;;;;;;23.62;68.25;99750.63;4983695;28;20112;-81
2023/09/17 10:42:29;;;;;;;9.15;4.85;;;;;;;23.64;67.98;99747.72;4960989;28;20050;-82
2023/09/17 10:44:57;;;;;;;7.13;4.68;;;;;;;23.68;68.09;99735.34;4997370;28;20046;-82
2023/09/17 10:47:25;;;;;;;6.95;4.70;;;;;;;23.72;68.41;99737.41;4976614;28;20083;-82
2023/09/17 10:49:52;;;;;;;6.75;4.78;;;;;;;23.75;67.42;99739.69;4982671;28;20050;-83
2023/09/17 10:52:19;;;;;;;8.57;4.57;;;;;;;23.78;67.71;99727.56;4979000;28;20052;-82
2023/09/17 10:54:46;;;;;;;11.07;5.30;;;;;;;23.78;67.70;99719.41;4984717;28;20046;-82
2023/09/17 10:57:20;;;;;;;7.38;4.97;;;;;;;23.78;67.12;99719.41;4997648;28;20043;-82
2023/09/17 10:59:47;;;;;;;5.80;4.50;;;;;;;23.82;67.17;99715.22;4997531;28;20065;-82
2023/09/17 11:02:15;;;;;;;5.90;4.60;;;;;;;23.85;66.61;99711.22;4965190;28;20597;-81
2023/09/17 11:04:43;;;;;;;7.13;4.75;;;;;;;23.89;65.76;99713.25;4977178;28;20076;-81
2023/09/17 11:07:10;;;;;;;9.00;4.97;;;;;;;23.94;65.97;99710.69;4956565;28;20419;-81
2023/09/17 11:09:37;;;;;;;7.65;5.05;;;;;;;23.96;66.20;99713.16;4965203;28;20078;-81
2023/09/17 11:12:04;;;;;;;6.57;4.95;;;;;;;23.99;66.18;99712.72;4952731;28;20486;-82
2023/09/17 11:14:31;;;;;;;9.25;4.57;;;;;;;24.02;66.00;99715.81;4983383;28;20054;-82
2023/09/17 11:16:58;;;;;;;6.47;4.55;;;;;;;24.04;66.08;99710.16;4952798;28;20157;-81
2023/09/17 11:19:25;;;;;;;6.13;4.70;;;;;;;24.04;65.51;99708.28;4978484;28;20098;-81
2023/09/17 11:22:04;;;;;;;9.77;4.68;;;;;;;24.06;64.35;99710.75;4996087;28;20049;-83
2023/09/17 11:24:32;;;;;;;4.78;4.20;;;;;;;24.13;65.80;99708.78;4975353;28;20042;-82
2023/09/17 11:27:20;;;;;;;5.13;4.63;;;;;;;24.11;64.88;99707.38;4933184;28;20046;-82
2023/09/17 11:30:14;;;;;;;5.15;4.18;;;;;;;24.13;64.92;99707.97;4810196;28;20064;-83
2023/09/17 11:32:56;;;;;;;9.15;4.40;;;;;;;24.22;64.98;99704.72;4935436;28;20045;-82
2023/09/17 11:35:24;;;;;;;6.47;4.30;;;;;;;24.27;65.09;99709.44;4998075;28;20056;-82
2023/09/17 11:37:51;;;;;;;6.18;4.22;;;;;;;24.29;65.26;99712.75;4978465;28;20050;-82